sensor_id;sensor_type;location;lat;lon;timestamp;pressure;altitude;pressure_sealevel;temperature;humidity
46886;BME280;32622;48.202;11.326;2022-09-17T00:03:39;1012.66;;;14.49;29.85
46886;BME280;32622;48.202;11.326;2022-09-17T00:05:43;1013.45;;;11.12;30.56
46886;BME280;32622;48.202;11.326;2022-09-17T00:07:46;1013.30;;;11.46;30.28
46886;BME280;32622;48.202;11.326;2022-09-17T00:09:49;1013.19;;;11.76;29.65
46886;BME280;32622;48.202;11.326;2022-09-17T00:13:31;1012.39;;;15.17;29.82
46886;BME280;32622;48.202;11.326;2022-09-17T00:15:39;1013.07;;;11.68;30.39
46886;BME280;32622;48.202;11.326;2022-09-17T00:18:16;1012.50;;;14.41;29.90
46886;BME280;32622;48.202;11.326;2022-09-17T00:20:19;1013.11;;;11.77;29.71
46886;BME280;32622;48.202;11.326;2022-09-17T00:23:29;1012.59;;;14.52;29.52
46886;BME280;32622;48.202;11.326;2022-09-17T00:25:32;1013.44;;;10.95;30.09
46886;BME280;32622;48.202;11.326;2022-09-17T00:27:51;1013.23;;;11.77;29.53
46886;BME280;32622;48.202;11.326;2022-09-17T00:29:54;1013.23;;;11.83;29.42
46886;BME280;32622;48.202;11.326;2022-09-17T00:32:00;1013.06;;;12.49;29.09
46886;BME280;32622;48.202;11.326;2022-09-17T00:34:04;1013.35;;;11.23;29.37
46886;BME280;32622;48.202;11.326;2022-09-17T00:36:08;1013.16;;;12.07;29.21
46886;BME280;32622;48.202;11.326;2022-09-17T00:38:11;1013.27;;;11.79;28.95
46886;BME280;32622;48.202;11.326;2022-09-17T00:40:14;1013.37;;;11.28;29.17
46886;BME280;32622;48.202;11.326;2022-09-17T00:42:33;1013.16;;;12.25;28.68
46886;BME280;32622;48.202;11.326;2022-09-17T00:44:42;1013.28;;;11.84;28.73
46886;BME280;32622;48.202;11.326;2022-09-17T00:47:24;1012.76;;;14.33;28.88
46886;BME280;32622;48.202;11.326;2022-09-17T00:49:30;1013.38;;;11.48;29.13
46886;BME280;32622;48.202;11.326;2022-09-17T00:53:47;1012.54;;;15.00;29.68
46886;BME280;32622;48.202;11.326;2022-09-17T00:55:56;1013.53;;;11.22;30.70
46886;BME280;32622;48.202;11.326;2022-09-17T00:58:03;1013.56;;;10.97;30.02
46886;BME280;32622;48.202;11.326;2022-09-17T01:00:08;1013.34;;;12.12;29.52
46886;BME280;32622;48.202;11.326;2022-09-17T01:03:00;1012.74;;;14.76;28.99
46886;BME280;32622;48.202;11.326;2022-09-17T01:05:05;1013.38;;;11.95;29.29
46886;BME280;32622;48.202;11.326;2022-09-17T01:08:05;1012.71;;;14.98;28.87
46886;BME280;32622;48.202;11.326;2022-09-17T01:10:22;1013.16;;;12.71;29.10
46886;BME280;32622;48.202;11.326;2022-09-17T01:13:12;1012.69;;;14.89;28.86
46886;BME280;32622;48.202;11.326;2022-09-17T01:15:27;1013.33;;;11.93;29.55
46886;BME280;32622;48.202;11.326;2022-09-17T01:18:33;1013.06;;;12.93;30.69
46886;BME280;32622;48.202;11.326;2022-09-17T01:21:05;1013.32;;;11.83;29.98
46886;BME280;32622;48.202;11.326;2022-09-17T01:26:25;1013.21;;;11.79;29.25
46886;BME280;32622;48.202;11.326;2022-09-17T01:29:18;1012.82;;;13.77;29.74
46886;BME280;32622;48.202;11.326;2022-09-17T01:31:33;1013.47;;;11.15;29.83
46886;BME280;32622;48.202;11.326;2022-09-17T01:33:59;1013.28;;;12.06;28.84
46886;BME280;32622;48.202;11.326;2022-09-17T01:36:15;1013.25;;;12.28;28.84
46886;BME280;32622;48.202;11.326;2022-09-17T01:38:26;1013.55;;;10.95;28.97
46886;BME280;32622;48.202;11.326;2022-09-17T01:40:38;1013.35;;;11.81;28.87
46886;BME280;32622;48.202;11.326;2022-09-17T01:43:35;1012.84;;;14.26;28.86
46886;BME280;32622;48.202;11.326;2022-09-17T01:45:48;1013.36;;;11.78;29.21
46886;BME280;32622;48.202;11.326;2022-09-17T01:48:02;1013.25;;;12.28;28.67
46886;BME280;32622;48.202;11.326;2022-09-17T01:50:09;1013.31;;;12.05;28.37
46886;BME280;32622;48.202;11.326;2022-09-17T01:55:04;1012.61;;;15.49;28.87
46886;BME280;32622;48.202;11.326;2022-09-17T01:57:13;1013.42;;;11.86;29.11
46886;BME280;32622;48.202;11.326;2022-09-17T01:59:21;1013.48;;;11.45;28.88
46886;BME280;32622;48.202;11.326;2022-09-17T02:01:28;1013.38;;;12.00;28.36
46886;BME280;32622;48.202;11.326;2022-09-17T02:03:38;1013.41;;;11.99;28.19
46886;BME280;32622;48.202;11.326;2022-09-17T02:05:45;1013.37;;;12.43;27.74
46886;BME280;32622;48.202;11.326;2022-09-17T02:07:53;1013.37;;;12.46;27.89
46886;BME280;32622;48.202;11.326;2022-09-17T02:10:00;1013.42;;;12.21;27.64
46886;BME280;32622;48.202;11.326;2022-09-17T02:12:11;1013.49;;;11.94;27.99
46886;BME280;32622;48.202;11.326;2022-09-17T02:14:20;1013.50;;;11.89;28.10
46886;BME280;32622;48.202;11.326;2022-09-17T02:16:27;1013.48;;;12.02;28.16
46886;BME280;32622;48.202;11.326;2022-09-17T02:18:35;1013.48;;;12.01;28.13
46886;BME280;32622;48.202;11.326;2022-09-17T02:20:44;1013.47;;;12.03;27.91
46886;BME280;32622;48.202;11.326;2022-09-17T02:22:51;1013.39;;;12.20;27.62
46886;BME280;32622;48.202;11.326;2022-09-17T02:25:02;1013.30;;;12.45;27.22
46886;BME280;32622;48.202;11.326;2022-09-17T02:27:10;1013.24;;;12.59;27.26
46886;BME280;32622;48.202;11.326;2022-09-17T02:29:22;1013.42;;;11.55;27.97
46886;BME280;32622;48.202;11.326;2022-09-17T02:31:27;1013.30;;;11.94;27.63
46886;BME280;32622;48.202;11.326;2022-09-17T02:33:31;1013.22;;;12.17;27.16
46886;BME280;32622;48.202;11.326;2022-09-17T02:35:35;1013.22;;;12.19;27.43
46886;BME280;32622;48.202;11.326;2022-09-17T02:37:38;1013.26;;;11.90;27.52
46886;BME280;32622;48.202;11.326;2022-09-17T02:39:42;1013.18;;;12.37;27.68
46886;BME280;32622;48.202;11.326;2022-09-17T02:41:52;1013.18;;;12.20;27.81
46886;BME280;32622;48.202;11.326;2022-09-17T02:44:03;1013.22;;;11.69;27.73
46886;BME280;32622;48.202;11.326;2022-09-17T02:46:25;1013.11;;;12.06;27.74
46886;BME280;32622;48.202;11.326;2022-09-17T02:48:42;1013.18;;;11.64;28.13
46886;BME280;32622;48.202;11.326;2022-09-17T02:51:04;1013.14;;;11.65;28.22
46886;BME280;32622;48.202;11.326;2022-09-17T02:53:25;1013.06;;;11.97;28.45
46886;BME280;32622;48.202;11.326;2022-09-17T02:55:38;1013.08;;;11.72;28.39
46886;BME280;32622;48.202;11.326;2022-09-17T02:57:46;1012.97;;;12.03;28.36
46886;BME280;32622;48.202;11.326;2022-09-17T03:00:04;1012.96;;;12.01;28.10
46886;BME280;32622;48.202;11.326;2022-09-17T03:02:14;1012.95;;;11.81;28.12
46886;BME280;32622;48.202;11.326;2022-09-17T03:04:19;1012.82;;;12.28;27.63
46886;BME280;32622;48.202;11.326;2022-09-17T03:06:23;1012.85;;;11.95;28.11
46886;BME280;32622;48.202;11.326;2022-09-17T03:08:31;1012.91;;;11.73;27.87
46886;BME280;32622;48.202;11.326;2022-09-17T03:10:34;1012.90;;;11.93;28.26
46886;BME280;32622;48.202;11.326;2022-09-17T03:12:38;1013.01;;;11.30;28.34
46886;BME280;32622;48.202;11.326;2022-09-17T03:14:41;1012.93;;;11.66;28.10
46886;BME280;32622;48.202;11.326;2022-09-17T03:16:44;1013.02;;;10.92;28.51
46886;BME280;32622;48.202;11.326;2022-09-17T03:18:47;1012.85;;;11.74;28.31
46886;BME280;32622;48.202;11.326;2022-09-17T03:20:51;1012.99;;;11.19;28.74
46886;BME280;32622;48.202;11.326;2022-09-17T03:22:54;1013.04;;;11.02;28.91
46886;BME280;32622;48.202;11.326;2022-09-17T03:24:57;1012.99;;;11.15;28.81
46886;BME280;32622;48.202;11.326;2022-09-17T03:27:00;1013.03;;;10.83;29.25
46886;BME280;32622;48.202;11.326;2022-09-17T03:29:04;1012.94;;;11.08;29.19
46886;BME280;32622;48.202;11.326;2022-09-17T03:31:07;1012.86;;;11.05;28.97
46886;BME280;32622;48.202;11.326;2022-09-17T03:33:10;1012.98;;;10.40;29.31
46886;BME280;32622;48.202;11.326;2022-09-17T03:35:13;1012.90;;;10.88;29.28
46886;BME280;32622;48.202;11.326;2022-09-17T03:37:16;1012.95;;;10.56;29.41
46886;BME280;32622;48.202;11.326;2022-09-17T03:39:19;1012.93;;;10.66;29.07
46886;BME280;32622;48.202;11.326;2022-09-17T03:41:23;1012.77;;;11.42;28.83
46886;BME280;32622;48.202;11.326;2022-09-17T03:43:26;1012.86;;;11.08;28.72
46886;BME280;32622;48.202;11.326;2022-09-17T03:45:29;1012.82;;;11.46;28.29
46886;BME280;32622;48.202;11.326;2022-09-17T03:47:32;1012.86;;;11.37;28.43
46886;BME280;32622;48.202;11.326;2022-09-17T03:49:35;1012.89;;;11.45;28.49
46886;BME280;32622;48.202;11.326;2022-09-17T03:51:38;1012.99;;;10.92;28.40
46886;BME280;32622;48.202;11.326;2022-09-17T03:53:41;1013.03;;;10.68;28.62
46886;BME280;32622;48.202;11.326;2022-09-17T03:55:44;1013.09;;;10.61;28.61
46886;BME280;32622;48.202;11.326;2022-09-17T03:57:47;1013.12;;;10.80;28.47
46886;BME280;32622;48.202;11.326;2022-09-17T03:59:50;1013.22;;;10.32;28.89
46886;BME280;32622;48.202;11.326;2022-09-17T04:01:54;1013.13;;;10.70;28.83
46886;BME280;32622;48.202;11.326;2022-09-17T04:03:57;1013.08;;;11.12;28.48
46886;BME280;32622;48.202;11.326;2022-09-17T04:06:00;1013.12;;;11.12;28.37
46886;BME280;32622;48.202;11.326;2022-09-17T04:08:04;1013.15;;;11.04;28.27
46886;BME280;32622;48.202;11.326;2022-09-17T04:10:07;1013.15;;;11.08;28.22
46886;BME280;32622;48.202;11.326;2022-09-17T04:12:10;1013.07;;;11.24;28.47
46886;BME280;32622;48.202;11.326;2022-09-17T04:14:13;1013.22;;;10.59;28.65
46886;BME280;32622;48.202;11.326;2022-09-17T04:16:17;1013.12;;;10.82;28.64
46886;BME280;32622;48.202;11.326;2022-09-17T04:18:20;1013.09;;;10.89;28.35
46886;BME280;32622;48.202;11.326;2022-09-17T04:20:23;1013.14;;;10.65;28.60
46886;BME280;32622;48.202;11.326;2022-09-17T04:22:27;1013.21;;;10.58;28.77
46886;BME280;32622;48.202;11.326;2022-09-17T04:24:30;1013.19;;;10.55;28.51
46886;BME280;32622;48.202;11.326;2022-09-17T04:26:34;1013.23;;;10.25;28.96
46886;BME280;32622;48.202;11.326;2022-09-17T04:28:37;1013.08;;;10.63;28.74
46886;BME280;32622;48.202;11.326;2022-09-17T04:30:40;1013.05;;;10.52;28.98
46886;BME280;32622;48.202;11.326;2022-09-17T04:32:44;1013.13;;;10.19;28.69
46886;BME280;32622;48.202;11.326;2022-09-17T04:34:47;1013.14;;;10.09;28.93
46886;BME280;32622;48.202;11.326;2022-09-17T04:36:50;1013.08;;;10.41;28.63
46886;BME280;32622;48.202;11.326;2022-09-17T04:38:54;1013.27;;;10.10;28.87
46886;BME280;32622;48.202;11.326;2022-09-17T04:40:57;1013.52;;;9.25;29.65
46886;BME280;32622;48.202;11.326;2022-09-17T04:43:00;1013.57;;;9.10;29.38
46886;BME280;32622;48.202;11.326;2022-09-17T04:45:04;1013.50;;;9.43;29.38
46886;BME280;32622;48.202;11.326;2022-09-17T04:47:07;1013.55;;;9.13;29.17
46886;BME280;32622;48.202;11.326;2022-09-17T04:49:10;1013.50;;;9.16;29.09
46886;BME280;32622;48.202;11.326;2022-09-17T04:51:13;1013.47;;;9.48;29.35
46886;BME280;32622;48.202;11.326;2022-09-17T04:53:17;1013.42;;;9.67;28.92
46886;BME280;32622;48.202;11.326;2022-09-17T04:55:20;1013.58;;;9.33;28.69
46886;BME280;32622;48.202;11.326;2022-09-17T04:57:23;1013.63;;;9.62;28.69
46886;BME280;32622;48.202;11.326;2022-09-17T04:59:26;1013.76;;;9.58;28.50
46886;BME280;32622;48.202;11.326;2022-09-17T05:01:29;1013.82;;;9.71;28.88
46886;BME280;32622;48.202;11.326;2022-09-17T05:03:32;1013.86;;;9.88;28.12
46886;BME280;32622;48.202;11.326;2022-09-17T05:05:35;1013.87;;;10.10;28.06
46886;BME280;32622;48.202;11.326;2022-09-17T05:07:39;1013.86;;;10.39;27.73
46886;BME280;32622;48.202;11.326;2022-09-17T05:09:42;1014.08;;;9.97;27.91
46886;BME280;32622;48.202;11.326;2022-09-17T05:11:45;1014.16;;;9.90;28.34
46886;BME280;32622;48.202;11.326;2022-09-17T05:13:48;1014.39;;;9.52;28.71
46886;BME280;32622;48.202;11.326;2022-09-17T05:15:53;1014.17;;;10.32;28.15
46886;BME280;32622;48.202;11.326;2022-09-17T05:17:56;1014.38;;;9.88;28.16
46886;BME280;32622;48.202;11.326;2022-09-17T05:20:00;1014.40;;;10.05;27.95
46886;BME280;32622;48.202;11.326;2022-09-17T05:22:03;1014.43;;;10.03;28.22
46886;BME280;32622;48.202;11.326;2022-09-17T05:24:06;1014.56;;;9.76;28.84
46886;BME280;32622;48.202;11.326;2022-09-17T05:26:10;1014.62;;;9.82;29.17
46886;BME280;32622;48.202;11.326;2022-09-17T05:28:13;1014.77;;;9.26;29.26
46886;BME280;32622;48.202;11.326;2022-09-17T05:30:16;1014.83;;;9.09;29.33
46886;BME280;32622;48.202;11.326;2022-09-17T05:32:19;1014.91;;;9.00;29.40
46886;BME280;32622;48.202;11.326;2022-09-17T05:34:22;1014.93;;;9.36;29.12
46886;BME280;32622;48.202;11.326;2022-09-17T05:36:58;1014.44;;;11.95;28.50
46886;BME280;32622;48.202;11.326;2022-09-17T05:39:01;1014.89;;;10.25;28.47
46886;BME280;32622;48.202;11.326;2022-09-17T05:41:06;1015.03;;;9.78;28.38
46886;BME280;32622;48.202;11.326;2022-09-17T05:43:09;1015.06;;;9.48;28.62
46886;BME280;32622;48.202;11.326;2022-09-17T05:45:13;1014.99;;;10.10;28.42
46886;BME280;32622;48.202;11.326;2022-09-17T05:47:21;1015.10;;;9.77;28.40
46886;BME280;32622;48.202;11.326;2022-09-17T05:49:24;1015.09;;;10.00;28.24
46886;BME280;32622;48.202;11.326;2022-09-17T05:51:27;1015.10;;;9.97;28.33
46886;BME280;32622;48.202;11.326;2022-09-17T05:53:30;1015.09;;;10.07;27.97
46886;BME280;32622;48.202;11.326;2022-09-17T05:55:33;1015.05;;;10.39;27.86
46886;BME280;32622;48.202;11.326;2022-09-17T05:57:36;1015.04;;;10.69;27.73
46886;BME280;32622;48.202;11.326;2022-09-17T05:59:39;1015.14;;;10.62;27.77
46886;BME280;32622;48.202;11.326;2022-09-17T06:01:42;1015.20;;;10.20;27.62
46886;BME280;32622;48.202;11.326;2022-09-17T06:03:46;1015.32;;;9.65;27.87
46886;BME280;32622;48.202;11.326;2022-09-17T06:05:53;1015.17;;;10.50;27.44
46886;BME280;32622;48.202;11.326;2022-09-17T06:07:57;1015.11;;;10.67;27.49
46886;BME280;32622;48.202;11.326;2022-09-17T06:09:59;1015.04;;;10.76;27.04
46886;BME280;32622;48.202;11.326;2022-09-17T06:12:03;1015.04;;;10.72;27.52
46886;BME280;32622;48.202;11.326;2022-09-17T06:14:07;1015.03;;;10.65;27.46
46886;BME280;32622;48.202;11.326;2022-09-17T06:16:10;1015.19;;;10.04;27.99
46886;BME280;32622;48.202;11.326;2022-09-17T06:18:13;1015.04;;;10.68;27.55
46886;BME280;32622;48.202;11.326;2022-09-17T06:20:16;1015.23;;;9.88;27.88
46886;BME280;32622;48.202;11.326;2022-09-17T06:22:19;1015.08;;;10.45;27.67
46886;BME280;32622;48.202;11.326;2022-09-17T06:24:22;1014.96;;;11.01;27.32
46886;BME280;32622;48.202;11.326;2022-09-17T06:26:25;1015.06;;;10.78;27.67
46886;BME280;32622;48.202;11.326;2022-09-17T06:28:28;1015.10;;;10.46;27.39
46886;BME280;32622;48.202;11.326;2022-09-17T06:30:31;1015.04;;;10.91;27.06
46886;BME280;32622;48.202;11.326;2022-09-17T06:32:34;1014.98;;;11.37;27.27
46886;BME280;32622;48.202;11.326;2022-09-17T06:34:37;1015.17;;;10.61;27.15
46886;BME280;32622;48.202;11.326;2022-09-17T06:36:40;1015.16;;;10.78;27.27
46886;BME280;32622;48.202;11.326;2022-09-17T06:38:43;1015.28;;;10.44;27.74
46886;BME280;32622;48.202;11.326;2022-09-17T06:40:50;1015.34;;;10.15;27.92
46886;BME280;32622;48.202;11.326;2022-09-17T06:42:56;1015.18;;;10.47;27.49
46886;BME280;32622;48.202;11.326;2022-09-17T06:44:59;1015.10;;;10.83;27.61
46886;BME280;32622;48.202;11.326;2022-09-17T06:47:03;1015.12;;;10.64;27.41
46886;BME280;32622;48.202;11.326;2022-09-17T06:49:06;1015.29;;;9.79;28.00
46886;BME280;32622;48.202;11.326;2022-09-17T06:51:10;1015.37;;;9.37;28.78
46886;BME280;32622;48.202;11.326;2022-09-17T06:53:15;1015.28;;;9.42;28.57
46886;BME280;32622;48.202;11.326;2022-09-17T06:55:19;1015.26;;;9.49;29.24
46886;BME280;32622;48.202;11.326;2022-09-17T06:57:22;1015.28;;;9.16;29.60
46886;BME280;32622;48.202;11.326;2022-09-17T06:59:25;1015.19;;;9.86;29.00
46886;BME280;32622;48.202;11.326;2022-09-17T07:01:28;1015.30;;;9.12;29.85
46886;BME280;32622;48.202;11.326;2022-09-17T07:03:32;1015.51;;;8.37;30.27
46886;BME280;32622;48.202;11.326;2022-09-17T07:05:35;1015.36;;;8.92;29.62
46886;BME280;32622;48.202;11.326;2022-09-17T07:07:39;1015.23;;;9.71;29.22
46886;BME280;32622;48.202;11.326;2022-09-17T07:09:41;1015.14;;;10.00;29.13
46886;BME280;32622;48.202;11.326;2022-09-17T07:11:44;1015.04;;;10.12;28.63
46886;BME280;32622;48.202;11.326;2022-09-17T07:13:48;1014.89;;;10.64;28.65
46886;BME280;32622;48.202;11.326;2022-09-17T07:15:53;1014.90;;;10.21;28.27
46886;BME280;32622;48.202;11.326;2022-09-17T07:17:56;1014.91;;;10.11;27.90
46886;BME280;32622;48.202;11.326;2022-09-17T07:20:00;1014.67;;;10.79;27.32
46886;BME280;32622;48.202;11.326;2022-09-17T07:22:04;1014.78;;;10.60;27.52
46886;BME280;32622;48.202;11.326;2022-09-17T07:24:07;1014.45;;;11.76;26.59
46886;BME280;32622;48.202;11.326;2022-09-17T07:26:14;1014.59;;;11.25;26.00
46886;BME280;32622;48.202;11.326;2022-09-17T07:28:17;1014.50;;;11.24;26.40
46886;BME280;32622;48.202;11.326;2022-09-17T07:30:21;1014.89;;;9.73;27.44
46886;BME280;32622;48.202;11.326;2022-09-17T07:32:25;1014.70;;;10.21;27.69
46886;BME280;32622;48.202;11.326;2022-09-17T07:34:28;1014.80;;;10.25;27.29
46886;BME280;32622;48.202;11.326;2022-09-17T07:36:31;1014.71;;;10.39;27.24
46886;BME280;32622;48.202;11.326;2022-09-17T07:38:34;1014.89;;;9.86;27.86
46886;BME280;32622;48.202;11.326;2022-09-17T07:40:37;1014.72;;;10.77;27.26
46886;BME280;32622;48.202;11.326;2022-09-17T07:42:40;1014.82;;;10.46;26.83
46886;BME280;32622;48.202;11.326;2022-09-17T07:44:43;1014.69;;;10.81;27.47
46886;BME280;32622;48.202;11.326;2022-09-17T07:46:45;1014.86;;;9.96;28.46
46886;BME280;32622;48.202;11.326;2022-09-17T07:48:49;1014.76;;;10.50;28.20
46886;BME280;32622;48.202;11.326;2022-09-17T07:50:53;1014.93;;;9.81;28.00
46886;BME280;32622;48.202;11.326;2022-09-17T07:52:55;1015.04;;;9.09;29.02
46886;BME280;32622;48.202;11.326;2022-09-17T07:54:58;1015.09;;;8.91;28.60
46886;BME280;32622;48.202;11.326;2022-09-17T07:57:01;1014.79;;;10.05;28.50
46886;BME280;32622;48.202;11.326;2022-09-17T07:59:05;1014.97;;;9.23;28.13
46886;BME280;32622;48.202;11.326;2022-09-17T08:01:09;1014.91;;;9.26;28.50
46886;BME280;32622;48.202;11.326;2022-09-17T08:03:12;1014.88;;;9.15;29.24
46886;BME280;32622;48.202;11.326;2022-09-17T08:05:15;1015.09;;;8.76;29.21
46886;BME280;32622;48.202;11.326;2022-09-17T08:07:18;1014.94;;;9.08;29.78
46886;BME280;32622;48.202;11.326;2022-09-17T08:09:21;1014.92;;;8.97;28.92
46886;BME280;32622;48.202;11.326;2022-09-17T08:11:25;1014.86;;;9.35;29.48
46886;BME280;32622;48.202;11.326;2022-09-17T08:13:29;1015.16;;;8.33;29.87
46886;BME280;32622;48.202;11.326;2022-09-17T08:15:32;1014.97;;;8.93;29.36
46886;BME280;32622;48.202;11.326;2022-09-17T08:17:35;1014.83;;;9.64;28.44
46886;BME280;32622;48.202;11.326;2022-09-17T08:19:38;1015.00;;;8.87;29.68
46886;BME280;32622;48.202;11.326;2022-09-17T08:21:41;1014.88;;;9.63;29.36
46886;BME280;32622;48.202;11.326;2022-09-17T08:23:44;1014.86;;;9.76;28.42
46886;BME280;32622;48.202;11.326;2022-09-17T08:25:52;1014.99;;;9.47;29.14
46886;BME280;32622;48.202;11.326;2022-09-17T08:27:55;1015.28;;;8.42;29.94
46886;BME280;32622;48.202;11.326;2022-09-17T08:29:58;1015.21;;;9.12;29.46
46886;BME280;32622;48.202;11.326;2022-09-17T08:32:01;1015.31;;;8.95;29.52
46886;BME280;32622;48.202;11.326;2022-09-17T08:34:07;1015.53;;;7.93;29.01
46886;BME280;32622;48.202;11.326;2022-09-17T08:36:12;1015.24;;;9.31;28.02
46886;BME280;32622;48.202;11.326;2022-09-17T08:38:15;1015.20;;;9.32;27.52
46886;BME280;32622;48.202;11.326;2022-09-17T08:40:20;1015.18;;;9.85;27.63
46886;BME280;32622;48.202;11.326;2022-09-17T08:42:29;1015.20;;;9.71;27.92
46886;BME280;32622;48.202;11.326;2022-09-17T08:44:39;1015.31;;;9.78;27.13
46886;BME280;32622;48.202;11.326;2022-09-17T08:46:47;1015.25;;;10.10;26.41
46886;BME280;32622;48.202;11.326;2022-09-17T08:48:59;1015.32;;;10.03;26.29
46886;BME280;32622;48.202;11.326;2022-09-17T08:51:14;1015.44;;;9.36;27.06
46886;BME280;32622;48.202;11.326;2022-09-17T08:53:43;1015.31;;;9.77;26.65
46886;BME280;32622;48.202;11.326;2022-09-17T08:55:58;1015.12;;;10.39;26.68
46886;BME280;32622;48.202;11.326;2022-09-17T08:58:20;1015.03;;;10.67;26.29
46886;BME280;32622;48.202;11.326;2022-09-17T09:00:32;1015.07;;;10.19;25.86
46886;BME280;32622;48.202;11.326;2022-09-17T09:02:52;1015.15;;;9.94;25.54
46886;BME280;32622;48.202;11.326;2022-09-17T09:05:07;1015.08;;;10.77;25.17
46886;BME280;32622;48.202;11.326;2022-09-17T09:07:14;1015.38;;;9.23;26.32
46886;BME280;32622;48.202;11.326;2022-09-17T09:09:20;1015.44;;;9.56;26.64
46886;BME280;32622;48.202;11.326;2022-09-17T09:11:27;1015.47;;;9.46;26.87
46886;BME280;32622;48.202;11.326;2022-09-17T09:13:34;1015.64;;;8.94;27.19
46886;BME280;32622;48.202;11.326;2022-09-17T09:15:43;1015.67;;;8.87;27.72
46886;BME280;32622;48.202;11.326;2022-09-17T09:17:48;1015.64;;;9.05;27.11
46886;BME280;32622;48.202;11.326;2022-09-17T09:19:53;1015.62;;;9.31;27.26
46886;BME280;32622;48.202;11.326;2022-09-17T09:22:02;1015.64;;;9.26;27.83
46886;BME280;32622;48.202;11.326;2022-09-17T09:24:13;1015.66;;;9.30;27.21
46886;BME280;32622;48.202;11.326;2022-09-17T09:26:23;1015.71;;;9.10;27.14
46886;BME280;32622;48.202;11.326;2022-09-17T09:28:43;1015.59;;;9.58;27.12
46886;BME280;32622;48.202;11.326;2022-09-17T09:30:57;1015.62;;;9.60;26.60
46886;BME280;32622;48.202;11.326;2022-09-17T09:33:06;1015.55;;;10.27;26.67
46886;BME280;32622;48.202;11.326;2022-09-17T09:35:17;1015.70;;;9.66;26.62
46886;BME280;32622;48.202;11.326;2022-09-17T09:37:23;1015.67;;;9.75;26.54
46886;BME280;32622;48.202;11.326;2022-09-17T09:39:30;1015.57;;;10.20;26.10
46886;BME280;32622;48.202;11.326;2022-09-17T09:41:41;1015.56;;;10.42;26.17
46886;BME280;32622;48.202;11.326;2022-09-17T09:43:47;1015.58;;;10.40;26.76
46886;BME280;32622;48.202;11.326;2022-09-17T09:46:07;1015.68;;;10.09;27.42
46886;BME280;32622;48.202;11.326;2022-09-17T09:48:16;1015.57;;;10.59;27.61
46886;BME280;32622;48.202;11.326;2022-09-17T09:50:33;1015.79;;;9.70;27.87
46886;BME280;32622;48.202;11.326;2022-09-17T09:52:50;1015.69;;;10.19;28.50
46886;BME280;32622;48.202;11.326;2022-09-17T09:55:05;1015.70;;;10.29;28.37
46886;BME280;32622;48.202;11.326;2022-09-17T09:57:12;1015.62;;;10.70;28.04
46886;BME280;32622;48.202;11.326;2022-09-17T09:59:18;1015.59;;;11.01;28.09
46886;BME280;32622;48.202;11.326;2022-09-17T10:01:21;1015.71;;;10.57;28.87
46886;BME280;32622;48.202;11.326;2022-09-17T10:03:27;1015.70;;;10.59;28.16
46886;BME280;32622;48.202;11.326;2022-09-17T10:05:30;1015.76;;;10.47;28.18
46886;BME280;32622;48.202;11.326;2022-09-17T10:07:42;1015.74;;;10.65;28.49
46886;BME280;32622;48.202;11.326;2022-09-17T10:09:47;1015.71;;;10.72;28.51
46886;BME280;32622;48.202;11.326;2022-09-17T10:12:15;1015.68;;;10.88;28.44
46886;BME280;32622;48.202;11.326;2022-09-17T10:14:22;1015.75;;;10.59;28.81
46886;BME280;32622;48.202;11.326;2022-09-17T10:16:26;1015.80;;;10.31;28.70
46886;BME280;32622;48.202;11.326;2022-09-17T10:18:29;1015.66;;;10.80;29.11
46886;BME280;32622;48.202;11.326;2022-09-17T10:20:32;1015.81;;;10.30;28.63
46886;BME280;32622;48.202;11.326;2022-09-17T10:22:36;1015.91;;;9.59;29.91
46886;BME280;32622;48.202;11.326;2022-09-17T10:24:40;1015.94;;;9.65;30.12
46886;BME280;32622;48.202;11.326;2022-09-17T10:26:43;1015.90;;;9.81;30.07
46886;BME280;32622;48.202;11.326;2022-09-17T10:28:48;1016.00;;;9.38;29.94
46886;BME280;32622;48.202;11.326;2022-09-17T10:30:56;1015.93;;;9.65;30.34
46886;BME280;32622;48.202;11.326;2022-09-17T10:33:18;1016.05;;;8.99;30.39
46886;BME280;32622;48.202;11.326;2022-09-17T10:35:26;1015.86;;;9.80;31.86
46886;BME280;32622;48.202;11.326;2022-09-17T10:37:35;1015.86;;;9.59;30.84
46886;BME280;32622;48.202;11.326;2022-09-17T10:39:43;1015.88;;;9.51;30.67
46886;BME280;32622;48.202;11.326;2022-09-17T10:41:53;1015.96;;;9.30;31.17
46886;BME280;32622;48.202;11.326;2022-09-17T10:44:15;1016.03;;;9.08;32.14
46886;BME280;32622;48.202;11.326;2022-09-17T10:46:21;1016.07;;;8.93;31.92
46886;BME280;32622;48.202;11.326;2022-09-17T10:48:30;1015.99;;;9.23;32.18
46886;BME280;32622;48.202;11.326;2022-09-17T10:50:35;1015.99;;;9.19;31.52
46886;BME280;32622;48.202;11.326;2022-09-17T10:52:39;1016.05;;;9.14;31.87
46886;BME280;32622;48.202;11.326;2022-09-17T10:54:58;1015.92;;;9.50;31.74
46886;BME280;32622;48.202;11.326;2022-09-17T10:57:06;1016.15;;;8.65;32.23
46886;BME280;32622;48.202;11.326;2022-09-17T10:59:30;1016.09;;;9.01;31.89
46886;BME280;32622;48.202;11.326;2022-09-17T11:01:42;1015.90;;;9.67;31.60
46886;BME280;32622;48.202;11.326;2022-09-17T11:06:42;1016.18;;;8.73;32.80
46886;BME280;32622;48.202;11.326;2022-09-17T11:08:57;1016.05;;;9.12;32.72
46886;BME280;32622;48.202;11.326;2022-09-17T11:11:09;1015.95;;;9.37;32.19
46886;BME280;32622;48.202;11.326;2022-09-17T11:13:20;1016.06;;;9.04;32.28
46886;BME280;32622;48.202;11.326;2022-09-17T11:15:37;1016.02;;;9.24;32.17
46886;BME280;32622;48.202;11.326;2022-09-17T11:17:57;1016.24;;;8.43;33.46
46886;BME280;32622;48.202;11.326;2022-09-17T11:20:06;1015.98;;;9.38;32.67
46886;BME280;32622;48.202;11.326;2022-09-17T11:22:20;1016.07;;;9.00;32.85
46886;BME280;32622;48.202;11.326;2022-09-17T11:24:38;1015.91;;;9.40;32.85
46886;BME280;32622;48.202;11.326;2022-09-17T11:26:51;1016.09;;;8.60;32.81
46886;BME280;32622;48.202;11.326;2022-09-17T11:29:03;1015.93;;;9.17;32.68
46886;BME280;32622;48.202;11.326;2022-09-17T11:31:20;1015.89;;;9.28;32.54
46886;BME280;32622;48.202;11.326;2022-09-17T11:33:36;1015.89;;;9.03;31.88
46886;BME280;32622;48.202;11.326;2022-09-17T11:35:46;1015.80;;;9.48;31.84
46886;BME280;32622;48.202;11.326;2022-09-17T11:38:04;1015.96;;;8.46;31.87